^^

Nearby METAR Reports


EGAC - Belfast Harbour, United Kingdom
Distance from station: W 8mi, 13km
Updated: 20/02/2018 07:20
Light rain, Partly cloudy
Light rain, Partly cloudy
 Wind from NW
Wind: NW 7 mph , 11 km/h
Temperature: 5°C
Wind Chill: 2°C
Dew Point: 3°C
Humidity: 87%
Barometer: 1026 hPa
Summary: Light rain
Clouds: Partly cloudy
Visibility: 6 miles , 10 km
Cloud details: Partly cloudy 1006 m
2018/02/20 07:20 EGAC 200720Z AUTO 31006KT 9999 -RA SCT033/// 05/03 Q1026 RERA
EGAA - Belfast/Aldergrove, United Kingdom
Distance from station: W 22mi, 35km
Updated: 20/02/2018 07:20
Few Clouds
Few Clouds
 Wind from W
Wind: W 7 mph , 11 km/h
Temperature: 2°C
Wind Chill: -1°C
Dew Point: 1°C
Humidity: 93%
Barometer: 1026 hPa
Clouds: Few Clouds
Visibility: 6 miles , 10 km
Cloud details: Few Clouds 853 m
2018/02/20 07:20 EGAA 200720Z 28006KT 9999 FEW028 02/01 Q1026
 
EGNS - Isle Of Man/Rona, United Kingdom
Distance from station: SE 57mi, 91km
Updated: 20/02/2018 07:20
Few Clouds
Few Clouds
 Wind from NW
Wind: NW 9 mph , 15 km/h
Temperature: 6°C
Wind Chill: 3°C
Dew Point: 3°C
Humidity: 81%
Barometer: 1025 hPa
Clouds: Few Clouds
Visibility: 6 miles , 10 km
Cloud details: Few Clouds 762 m
2018/02/20 07:20 EGNS 200720Z 32008KT 280V350 9999 FEW025 06/03 Q1025 NOSIG
EGAE - Eglinton/Londonderry, United Kingdom
Distance from station: WNW 65mi, 105km
Updated: 20/02/2018 07:20
Few Clouds
Few Clouds
 Wind from SSW
Wind: SSW 9 mph , 15 km/h
Temperature: 6°C
Wind Chill: 3°C
Dew Point: 4°C
Humidity: 87%
Barometer: 1026 hPa
Clouds: Few Clouds
Visibility: 6 miles , 10 km
Cloud details: Few Clouds 914 m
2018/02/20 07:20 EGAE 200720Z 21008KT 9999 FEW030 06/04 Q1026
 
EGPK - Prestwick(Civ/Na, United Kingdom
Distance from station: NE 74mi, 119km
Updated: 20/02/2018 07:20
Few Clouds
Few Clouds
 Wind from NW
Wind: NW 9 mph , 15 km/h
Temperature: 6°C
Wind Chill: 3°C
Dew Point: 4°C
Humidity: 87%
Barometer: 1024 hPa
Clouds: Few Clouds
Visibility: 6 miles , 10 km
Cloud details: Few Clouds 1158 m
2018/02/20 07:20 EGPK 200720Z 32008KT 9999 FEW038 06/04 Q1024
EIDW - Dublin Airport, Ireland
Distance from station: SSW 87mi, 141km
Updated: 20/02/2018 07:30
Few Clouds
Few Clouds
 Wind from WNW
Wind: WNW 8 mph , 13 km/h
Temperature: 2°C
Wind Chill: -1°C
Dew Point: 1°C
Humidity: 93%
Barometer: 1027 hPa
Clouds: Few Clouds
Visibility: 6 miles , 10 km
Cloud details: Few Clouds 366 m
2018/02/20 07:30 EIDW 200730Z 30007KT 9999 FEW012 02/01 Q1027 NOSIG